Time;durP1;ratioP1;P1;durP2;ratioP2;P2;SDS_P1;SDS_P2;PMS_P1;PMS_P2;Temp;Humidity;BMP_temperature;BMP_pressure;BME280_temperature;BME280_humidity;BME280_pressure;Samples;Min_cycle;Max_cycle;Signal;HPM_P1;HPM_P2
2024/01/25 00:00:18;;;;;;;26.87;16.47;;;;;;;5.11;75.63;99856.81;5134729;27;20194;-63
2024/01/25 00:02:44;;;;;;;17.67;14.27;;;;;;;5.05;75.97;99869.75;5123940;27;20661;-63
2024/01/25 00:05:12;;;;;;;24.23;14.17;;;;;;;4.88;75.58;99866.16;5114629;28;20255;-62
2024/01/25 00:07:46;;;;;;;16.97;14.00;;;;;;;4.85;76.29;99840.13;5114803;28;20215;-62
2024/01/25 00:10:13;;;;;;;21.37;15.57;;;;;;;4.91;75.73;99807.94;5117030;27;20186;-62
2024/01/25 00:12:40;;;;;;;20.17;15.70;;;;;;;4.92;75.80;99806.97;5135020;27;20231;-62
2024/01/25 00:15:07;;;;;;;23.33;15.63;;;;;;;4.97;75.16;99807.34;5134713;27;20598;-62
2024/01/25 00:17:33;;;;;;;29.43;18.67;;;;;;;5.03;75.28;99808.53;5134750;27;20202;-62
2024/01/25 00:20:00;;;;;;;21.13;15.70;;;;;;;4.86;75.49;99804.94;5118956;27;20252;-62
2024/01/25 00:22:28;;;;;;;21.10;16.43;;;;;;;4.82;75.98;99829.91;5113975;28;20199;-62
2024/01/25 00:24:55;;;;;;;26.10;16.37;;;;;;;4.86;76.72;99815.47;5114072;28;20198;-61
2024/01/25 00:27:21;;;;;;;24.27;17.30;;;;;;;4.83;76.52;99794.72;5113717;28;20268;-62
2024/01/25 00:29:48;;;;;;;22.53;16.77;;;;;;;4.81;77.07;99788.78;5126139;27;20662;-60
2024/01/25 00:32:15;;;;;;;24.00;16.43;;;;;;;4.83;76.94;99799.97;5134696;27;20198;-61
2024/01/25 00:34:42;;;;;;;25.50;17.37;;;;;;;4.83;77.00;99797.34;5134763;27;20194;-61
2024/01/25 00:37:10;;;;;;;23.70;16.77;;;;;;;4.88;76.98;99810.06;5133508;27;20251;-61
2024/01/25 00:39:38;;;;;;;26.53;16.53;;;;;;;4.85;76.64;99795.41;5122960;27;20274;-61
2024/01/25 00:42:07;;;;;;;26.57;17.33;;;;;;;4.84;76.85;99793.75;5134481;27;20250;-61
2024/01/25 00:44:34;;;;;;;24.87;17.40;;;;;;;4.64;76.98;99783.53;5133977;27;20247;-61
2024/01/25 00:47:01;;;;;;;26.10;17.50;;;;;;;4.60;77.38;99777.75;5134524;27;20229;-60
2024/01/25 00:49:28;;;;;;;23.73;17.17;;;;;;;4.62;77.58;99778.44;5124212;27;20243;-63
2024/01/25 00:52:02;;;;;;;26.90;17.67;;;;;;;4.58;77.52;99781.53;5113686;28;20275;-61
2024/01/25 00:54:29;;;;;;;22.90;15.43;;;;;;;4.63;77.78;99777.47;5113678;28;20182;-61
2024/01/25 00:56:58;;;;;;;22.47;16.47;;;;;;;4.58;77.79;99750.78;5113217;28;20657;-61
2024/01/25 00:59:25;;;;;;;24.03;15.60;;;;;;;4.67;77.39;99770.94;5119017;27;20638;-61
2024/01/25 01:01:54;;;;;;;20.67;14.83;;;;;;;4.69;77.51;99776.00;5113049;28;20195;-61
2024/01/25 01:04:21;;;;;;;13.27;11.60;;;;;;;4.60;77.72;99772.50;5113042;28;20708;-61
2024/01/25 01:06:48;;;;;;;10.80;9.07;;;;;;;4.46;77.88;99754.59;5113207;28;20622;-61
2024/01/25 01:09:15;;;;;;;8.60;7.67;;;;;;;4.47;78.66;99739.66;5119611;27;20550;-62
2024/01/25 01:11:42;;;;;;;6.10;5.70;;;;;;;4.60;79.04;99725.16;5133842;27;20258;-62
2024/01/25 01:14:10;;;;;;;5.90;4.47;;;;;;;4.95;78.42;99719.00;5133710;27;20194;-61
2024/01/25 01:16:37;;;;;;;3.63;3.43;;;;;;;5.19;77.69;99706.78;5133355;27;20254;-62
2024/01/25 01:19:06;;;;;;;3.50;3.20;;;;;;;5.58;76.93;99713.22;5129102;27;20226;-62
2024/01/25 01:21:34;;;;;;;12.03;6.63;;;;;;;5.98;75.51;99701.19;5123507;27;20577;-62
2024/01/25 01:24:01;;;;;;;6.50;5.10;;;;;;;6.27;74.59;99698.91;5132989;27;20240;-62
2024/01/25 01:26:27;;;;;;;4.57;4.20;;;;;;;6.58;73.47;99697.28;5132927;27;20280;-62
2024/01/25 01:28:54;;;;;;;6.13;4.17;;;;;;;6.86;72.17;99709.13;5133388;27;20227;-63
2024/01/25 01:31:22;;;;;;;4.73;3.63;;;;;;;7.07;70.48;99710.22;5124769;27;20302;-62
2024/01/25 01:33:49;;;;;;;4.17;3.37;;;;;;;7.23;69.05;99709.38;5112215;28;20217;-61
2024/01/25 01:36:15;;;;;;;3.70;3.40;;;;;;;7.29;68.79;99703.41;5119136;27;20242;-62
2024/01/25 01:38:42;;;;;;;3.90;3.70;;;;;;;7.39;66.61;99706.69;5118761;27;20265;-62
2024/01/25 01:41:12;;;;;;;3.80;3.50;;;;;;;7.48;65.88;99716.25;5118674;27;20217;-62
2024/01/25 01:43:39;;;;;;;2.80;2.47;;;;;;;7.58;64.63;99709.75;5133575;27;20192;-62
2024/01/25 01:46:11;;;;;;;3.17;2.73;;;;;;;7.69;64.62;99706.75;5133114;27;20627;-62
2024/01/25 01:48:39;;;;;;;3.63;3.33;;;;;;;7.78;64.99;99704.88;5133140;27;20212;-61
2024/01/25 01:51:07;;;;;;;3.97;3.30;;;;;;;7.84;64.64;99709.47;5127101;27;20182;-62
2024/01/25 01:53:34;;;;;;;3.87;3.67;;;;;;;7.94;65.07;99715.34;5112362;28;20213;-62
2024/01/25 01:56:01;;;;;;;3.00;2.60;;;;;;;7.90;64.92;99708.78;5111975;28;20198;-63
2024/01/25 01:58:29;;;;;;;2.73;2.50;;;;;;;8.00;64.56;99707.56;5112462;28;20199;-62
2024/01/25 02:00:56;;;;;;;2.87;2.67;;;;;;;7.99;64.46;99699.78;5115105;27;20729;-62
2024/01/25 02:03:23;;;;;;;3.00;2.80;;;;;;;8.01;63.86;99703.91;5130468;27;20235;-62
2024/01/25 02:05:51;;;;;;;2.63;2.43;;;;;;;7.97;64.25;99701.78;5132517;27;20190;-62
2024/01/25 02:08:18;;;;;;;3.07;2.53;;;;;;;8.04;63.51;99705.41;5132797;27;20320;-60
2024/01/25 02:10:45;;;;;;;3.67;2.87;;;;;;;7.95;63.38;99698.47;5131146;27;20222;-62
2024/01/25 02:13:11;;;;;;;3.40;3.20;;;;;;;8.00;62.90;99694.31;5112141;28;20190;-63
2024/01/25 02:15:38;;;;;;;3.00;2.80;;;;;;;8.02;62.43;99704.72;5111670;28;20244;-62
2024/01/25 02:18:06;;;;;;;3.57;3.07;;;;;;;8.09;61.65;99700.41;5111748;28;20199;-61
2024/01/25 02:20:32;;;;;;;2.77;2.57;;;;;;;8.17;61.90;99684.47;5112561;28;20194;-61
2024/01/25 02:23:01;;;;;;;2.50;2.30;;;;;;;8.24;61.94;99690.72;5112083;28;20550;-62
2024/01/25 02:25:27;;;;;;;2.80;2.63;;;;;;;8.34;62.33;99680.75;5111736;28;20672;-62
2024/01/25 02:27:54;;;;;;;2.83;2.37;;;;;;;8.38;62.81;99679.38;5111923;28;20283;-61
2024/01/25 02:30:21;;;;;;;2.53;2.33;;;;;;;8.43;62.54;99680.50;5111676;28;20210;-61
2024/01/25 02:32:48;;;;;;;2.93;2.67;;;;;;;8.43;62.84;99669.09;5111580;28;20624;-62
2024/01/25 02:35:15;;;;;;;4.03;2.57;;;;;;;8.37;64.34;99654.72;5115694;28;20190;-62
2024/01/25 02:37:41;;;;;;;4.07;2.43;;;;;;;8.56;64.53;99648.13;5126358;28;20197;-62
2024/01/25 02:40:11;;;;;;;2.70;2.50;;;;;;;8.63;64.50;99668.41;5111919;28;20226;-62
2024/01/25 02:42:37;;;;;;;2.43;2.30;;;;;;;8.71;64.86;99664.88;5111740;28;20198;-62
2024/01/25 02:45:04;;;;;;;4.00;2.30;;;;;;;8.74;65.70;99656.56;5114963;27;20202;-62
2024/01/25 02:47:31;;;;;;;2.10;2.00;;;;;;;8.91;64.94;99658.06;5116267;27;20267;-61
2024/01/25 02:49:58;;;;;;;2.43;2.33;;;;;;;8.94;64.87;99652.41;5116060;28;20251;-62
2024/01/25 02:52:25;;;;;;;3.30;1.90;;;;;;;9.02;64.70;99644.34;5115494;28;20198;-61
2024/01/25 02:54:51;;;;;;;1.90;1.80;;;;;;;9.17;64.76;99647.81;5115985;28;20247;-61
2024/01/25 02:57:19;;;;;;;2.67;2.07;;;;;;;9.28;64.43;99631.47;5131841;27;20197;-61
2024/01/25 02:59:46;;;;;;;1.90;1.80;;;;;;;9.34;64.49;99626.25;5136785;27;20194;-62
2024/01/25 03:02:13;;;;;;;1.93;1.73;;;;;;;9.41;64.61;99623.66;5136200;27;20285;-62
2024/01/25 03:04:40;;;;;;;1.93;1.83;;;;;;;9.43;64.93;99626.94;5136368;27;20193;-62
2024/01/25 03:07:06;;;;;;;2.00;1.90;;;;;;;9.49;65.19;99612.97;5122365;27;20218;-62
2024/01/25 03:09:33;;;;;;;2.13;1.97;;;;;;;9.52;66.37;99615.25;5115028;28;20218;-62
2024/01/25 03:12:00;;;;;;;2.10;2.00;;;;;;;9.46;66.95;99627.41;5115412;28;20492;-62
2024/01/25 03:14:28;;;;;;;2.20;2.00;;;;;;;9.61;66.96;99604.31;5115656;28;20260;-63
2024/01/25 03:16:54;;;;;;;2.23;2.10;;;;;;;9.72;67.00;99611.00;5126512;27;20275;-62
2024/01/25 03:19:21;;;;;;;2.30;2.20;;;;;;;9.84;66.63;99618.25;5136123;27;20197;-62
2024/01/25 03:21:48;;;;;;;2.13;2.00;;;;;;;9.92;66.62;99627.91;5136197;27;20634;-62
2024/01/25 03:24:15;;;;;;;2.00;1.90;;;;;;;10.03;66.73;99616.81;5135986;27;20258;-62
2024/01/25 03:26:41;;;;;;;2.67;2.50;;;;;;;10.03;66.28;99614.16;5127116;27;20222;-62
2024/01/25 03:29:08;;;;;;;3.43;2.20;;;;;;;9.95;67.27;99608.97;5114894;27;20214;-62
2024/01/25 03:31:37;;;;;;;2.33;2.23;;;;;;;9.99;67.11;99612.91;5115182;28;20272;-61
2024/01/25 03:34:04;;;;;;;2.77;2.63;;;;;;;9.94;67.51;99610.00;5115296;28;20278;-62
2024/01/25 03:36:31;;;;;;;2.93;2.73;;;;;;;9.99;67.14;99623.50;5121796;27;20243;-63
2024/01/25 03:38:58;;;;;;;2.40;2.30;;;;;;;9.94;66.70;99615.31;5119130;27;20194;-61
2024/01/25 03:41:25;;;;;;;2.50;2.30;;;;;;;9.74;66.65;99623.06;5114524;27;20359;-62
2024/01/25 03:43:52;;;;;;;2.80;2.27;;;;;;;9.61;66.50;99608.81;5115305;27;20251;-61
2024/01/25 03:46:19;;;;;;;3.83;3.33;;;;;;;9.47;66.63;99621.09;5115132;28;20584;-62
2024/01/25 03:48:47;;;;;;;3.10;2.80;;;;;;;9.38;66.77;99635.47;5114648;28;20222;-61
2024/01/25 03:51:13;;;;;;;3.10;2.90;;;;;;;9.38;66.05;99624.03;5114516;28;20239;-63
2024/01/25 03:53:42;;;;;;;4.80;3.03;;;;;;;9.44;66.41;99633.91;5131627;27;20202;-62
2024/01/25 03:56:12;;;;;;;3.33;3.13;;;;;;;9.49;66.17;99636.81;5135142;27;20224;-62
2024/01/25 03:58:39;;;;;;;3.30;3.10;;;;;;;9.35;65.11;99640.34;5135234;27;20271;-60
2024/01/25 04:01:06;;;;;;;3.40;3.20;;;;;;;9.36;65.70;99656.03;5134589;27;20219;-61
2024/01/25 04:03:33;;;;;;;6.70;3.13;;;;;;;9.32;65.49;99646.00;5119146;27;20194;-61
2024/01/25 04:06:01;;;;;;;2.60;2.40;;;;;;;9.18;65.70;99639.69;5113856;28;20662;-61
2024/01/25 04:08:28;;;;;;;2.00;1.90;;;;;;;9.30;65.76;99642.69;5113979;28;20222;-61
2024/01/25 04:10:55;;;;;;;1.97;1.63;;;;;;;9.39;65.84;99629.16;5113467;28;20251;-61
2024/01/25 04:13:21;;;;;;;2.57;1.63;;;;;;;9.56;66.12;99621.81;5126523;27;20186;-60
2024/01/25 04:15:48;;;;;;;3.07;2.50;;;;;;;9.71;65.06;99615.47;5134504;27;20190;-60
2024/01/25 04:18:15;;;;;;;1.30;1.23;;;;;;;9.86;64.72;99618.06;5134419;27;20579;-62
2024/01/25 04:20:42;;;;;;;1.53;1.43;;;;;;;9.94;64.86;99621.44;5130581;27;20187;-61
2024/01/25 04:23:10;;;;;;;1.20;1.17;;;;;;;9.94;64.63;99626.75;5114117;28;20252;-62
2024/01/25 04:25:37;;;;;;;1.47;1.40;;;;;;;9.98;64.32;99617.41;5113665;28;20260;-60
2024/01/25 04:28:04;;;;;;;1.80;1.70;;;;;;;9.90;64.95;99636.09;5114056;28;20649;-61
2024/01/25 04:30:32;;;;;;;1.40;1.30;;;;;;;9.94;64.53;99653.28;5115228;27;20244;-61
2024/01/25 04:32:59;;;;;;;2.30;2.07;;;;;;;9.96;64.55;99671.63;5119832;27;20206;-59
2024/01/25 04:35:26;;;;;;;2.67;1.53;;;;;;;9.89;65.00;99655.66;5113267;28;20190;-60
2024/01/25 04:37:52;;;;;;;1.93;1.53;;;;;;;9.97;65.21;99670.66;5113148;28;20190;-60
2024/01/25 04:40:20;;;;;;;9.37;2.67;;;;;;;10.00;65.58;99656.97;5115276;27;20214;-61
2024/01/25 04:42:47;;;;;;;2.67;2.13;;;;;;;9.91;66.01;99655.47;5118260;27;20190;-61
2024/01/25 04:45:14;;;;;;;2.40;2.30;;;;;;;9.99;66.00;99660.66;5121691;27;20251;-61
2024/01/25 04:47:41;;;;;;;3.60;2.00;;;;;;;9.94;65.83;99658.59;5127778;27;20191;-60
2024/01/25 04:50:08;;;;;;;2.30;2.10;;;;;;;9.96;66.15;99650.41;5124565;27;20270;-60
2024/01/25 04:52:35;;;;;;;1.83;1.73;;;;;;;9.95;65.95;99654.09;5113259;28;20195;-61
2024/01/25 04:55:01;;;;;;;2.67;1.97;;;;;;;10.01;65.89;99658.66;5112371;28;20203;-61
2024/01/25 04:57:30;;;;;;;3.13;1.53;;;;;;;9.94;66.48;99673.69;5108714;28;20187;-62
2024/01/25 04:59:56;;;;;;;1.63;1.53;;;;;;;9.93;66.17;99664.06;5113002;27;20195;-62
2024/01/25 05:02:23;;;;;;;1.83;1.73;;;;;;;10.00;65.97;99659.63;5113459;28;20191;-63
2024/01/25 05:04:50;;;;;;;1.80;1.70;;;;;;;10.00;66.15;99646.38;5113021;28;20186;-62
2024/01/25 05:07:17;;;;;;;1.70;1.60;;;;;;;9.94;66.39;99663.91;5112714;28;20188;-62
2024/01/25 05:09:43;;;;;;;3.63;2.33;;;;;;;9.92;66.55;99657.94;5112964;27;20225;-62
2024/01/25 05:12:10;;;;;;;3.30;2.00;;;;;;;9.87;66.81;99667.47;5112743;28;20194;-62
2024/01/25 05:14:38;;;;;;;2.00;1.90;;;;;;;9.95;67.06;99664.69;5111988;28;20206;-63
2024/01/25 05:17:05;;;;;;;2.03;1.93;;;;;;;9.92;66.98;99655.28;5104356;28;20194;-63
2024/01/25 05:19:32;;;;;;;4.13;1.73;;;;;;;9.88;68.02;99656.66;5114994;27;20191;-62
2024/01/25 05:21:59;;;;;;;1.83;1.57;;;;;;;9.77;68.33;99605.94;5133089;27;20247;-62
2024/01/25 05:24:25;;;;;;;1.70;1.60;;;;;;;9.84;68.67;99620.06;5113304;27;20335;-62
2024/01/25 05:26:52;;;;;;;1.40;1.40;;;;;;;9.84;68.64;99626.22;5112679;28;20191;-63
2024/01/25 05:29:19;;;;;;;1.90;1.80;;;;;;;9.89;68.99;99650.34;5114895;27;20213;-65
2024/01/25 05:31:48;;;;;;;2.50;2.00;;;;;;;10.02;68.79;99670.91;5112008;27;20325;-65
2024/01/25 05:34:15;;;;;;;2.60;2.50;;;;;;;10.12;68.63;99650.19;5112010;28;20551;-63
2024/01/25 05:36:42;;;;;;;2.10;1.80;;;;;;;10.17;68.36;99619.44;5111542;28;20263;-65
2024/01/25 05:39:09;;;;;;;3.30;3.10;;;;;;;10.25;68.97;99645.03;5112879;27;20191;-61
2024/01/25 05:41:36;;;;;;;4.50;2.20;;;;;;;10.31;68.54;99655.72;5111936;27;20655;-63
2024/01/25 05:44:03;;;;;;;4.30;4.10;;;;;;;10.28;68.38;99658.75;5112019;28;20198;-63
2024/01/25 05:46:29;;;;;;;5.30;4.50;;;;;;;10.27;68.42;99654.47;5112065;28;20662;-61
2024/01/25 05:48:57;;;;;;;2.50;2.30;;;;;;;10.46;68.04;99663.63;5111292;27;20217;-63
2024/01/25 05:51:24;;;;;;;2.60;2.33;;;;;;;10.37;67.90;99648.81;5108621;28;20244;-64
2024/01/25 05:53:51;;;;;;;2.20;1.60;;;;;;;10.51;67.72;99669.16;5111246;28;20662;-62
2024/01/25 05:56:18;;;;;;;9.60;1.67;;;;;;;10.46;68.03;99680.34;5109225;28;20196;-64
2024/01/25 05:58:44;;;;;;;66.23;4.47;;;;;;;10.53;67.90;99681.25;5107086;28;20688;-64
2024/01/25 06:01:11;;;;;;;7.50;6.03;;;;;;;10.53;68.07;99681.25;5107962;28;20284;-64
2024/01/25 06:03:38;;;;;;;2.70;2.50;;;;;;;10.55;67.99;99692.47;5107491;28;20625;-61
2024/01/25 06:06:07;;;;;;;3.10;2.90;;;;;;;10.57;68.00;99689.63;5108596;28;20203;-65
2024/01/25 06:08:34;;;;;;;4.40;2.07;;;;;;;10.51;68.37;99709.00;5109323;28;20203;-63
2024/01/25 06:11:01;;;;;;;2.20;2.10;;;;;;;10.45;68.80;99707.09;5110597;28;20192;-63
2024/01/25 06:13:27;;;;;;;3.73;1.83;;;;;;;10.27;69.27;99715.53;5110166;28;20667;-64
2024/01/25 06:15:54;;;;;;;2.70;2.50;;;;;;;10.24;69.80;99717.72;5110463;28;20204;-63
2024/01/25 06:18:21;;;;;;;3.73;2.10;;;;;;;10.22;70.04;99725.06;5110134;28;20252;-62
2024/01/25 06:20:47;;;;;;;2.70;2.50;;;;;;;10.23;70.07;99739.97;5109678;28;20627;-64
2024/01/25 06:23:15;;;;;;;5.87;2.93;;;;;;;10.20;70.19;99754.44;5110733;28;20253;-63
2024/01/25 06:25:42;;;;;;;4.27;3.90;;;;;;;10.17;70.54;99754.81;5119683;27;20324;-62
2024/01/25 06:28:09;;;;;;;6.00;3.13;;;;;;;10.14;70.41;99754.38;5132241;27;20273;-64
2024/01/25 06:30:35;;;;;;;2.90;2.70;;;;;;;10.05;70.82;99761.59;5131056;28;20221;-66
2024/01/25 06:33:03;;;;;;;3.27;2.87;;;;;;;9.98;71.10;99762.50;5128428;28;20199;-62
2024/01/25 06:35:30;;;;;;;2.30;2.20;;;;;;;9.94;70.85;99758.59;5114950;28;20193;-63
2024/01/25 06:37:57;;;;;;;3.13;2.83;;;;;;;10.00;71.41;99763.13;5119602;28;20697;-64
2024/01/25 06:40:25;;;;;;;3.43;2.10;;;;;;;10.00;71.00;99752.53;5109678;28;20218;-63
2024/01/25 06:42:52;;;;;;;2.93;2.60;;;;;;;9.97;70.34;99753.72;5109375;28;20336;-64
2024/01/25 06:45:18;;;;;;;11.03;3.43;;;;;;;10.08;69.44;99755.09;5114769;28;20243;-64
2024/01/25 06:47:46;;;;;;;4.90;2.17;;;;;;;10.30;68.16;99764.75;5121688;28;20243;-65
2024/01/25 06:50:13;;;;;;;11.03;3.23;;;;;;;10.47;67.69;99755.53;5101739;28;20287;-63
2024/01/25 06:52:39;;;;;;;6.43;1.93;;;;;;;10.43;67.39;99746.31;5106144;28;20639;-62
2024/01/25 06:55:07;;;;;;;2.77;2.17;;;;;;;10.46;66.73;99743.28;5107909;28;20187;-61
2024/01/25 06:57:35;;;;;;;13.37;4.80;;;;;;;10.53;67.15;99749.47;5108613;28;20192;-64
2024/01/25 07:00:01;;;;;;;4.47;4.07;;;;;;;10.45;67.95;99742.44;5108099;28;20272;-64
2024/01/25 07:02:28;;;;;;;5.23;3.80;;;;;;;10.46;68.56;99753.91;5109568;28;20206;-64
2024/01/25 07:04:55;;;;;;;4.50;2.33;;;;;;;10.58;67.18;99741.78;5106798;28;20200;-65
2024/01/25 07:07:22;;;;;;;3.23;2.17;;;;;;;10.70;66.45;99734.91;5107379;28;20693;-63
2024/01/25 07:09:48;;;;;;;2.87;1.80;;;;;;;10.74;65.65;99746.81;5106856;28;20304;-63
2024/01/25 07:12:15;;;;;;;2.77;2.57;;;;;;;10.72;65.65;99754.16;5106883;28;20277;-64
2024/01/25 07:14:43;;;;;;;4.40;4.10;;;;;;;10.68;65.27;99753.72;5107490;28;20253;-62
2024/01/25 07:17:10;;;;;;;3.47;3.00;;;;;;;10.74;65.19;99754.78;5108231;28;20631;-64
2024/01/25 07:19:37;;;;;;;4.43;2.67;;;;;;;10.62;65.77;99758.97;5107187;28;20203;-62
2024/01/25 07:22:04;;;;;;;3.33;2.10;;;;;;;10.83;65.06;99758.97;5107315;28;20279;-63
2024/01/25 07:24:32;;;;;;;3.50;2.33;;;;;;;10.78;65.31;99750.72;5106945;28;20203;-64
2024/01/25 07:26:59;;;;;;;6.23;3.50;;;;;;;10.79;65.22;99761.16;5105925;28;20252;-65
2024/01/25 07:29:25;;;;;;;4.70;3.70;;;;;;;10.90;64.43;99767.78;5107740;28;20220;-64
2024/01/25 07:31:53;;;;;;;11.43;4.57;;;;;;;10.82;63.92;99755.47;5107486;28;20195;-65
2024/01/25 07:34:20;;;;;;;8.60;4.33;;;;;;;10.88;63.73;99764.53;5107675;28;20195;-65
2024/01/25 07:36:47;;;;;;;7.87;3.50;;;;;;;11.03;62.07;99770.59;5112204;28;20664;-63
2024/01/25 07:39:14;;;;;;;30.97;3.33;;;;;;;11.20;61.24;99757.81;5114024;28;20192;-63
2024/01/25 07:41:40;;;;;;;10.40;2.43;;;;;;;11.46;59.70;99761.50;5114754;28;20220;-63
2024/01/25 07:44:07;;;;;;;13.63;2.50;;;;;;;11.67;58.94;99764.09;5114423;28;20196;-62
2024/01/25 07:46:34;;;;;;;5.30;2.37;;;;;;;11.76;58.82;99773.56;5111408;28;20200;-63
2024/01/25 07:49:02;;;;;;;3.23;1.83;;;;;;;11.63;59.31;99770.81;5111692;28;20261;-63
2024/01/25 07:51:29;;;;;;;4.17;2.00;;;;;;;11.46;59.43;99764.16;5114761;28;20196;-63
2024/01/25 07:53:55;;;;;;;3.00;1.90;;;;;;;11.43;59.80;99751.22;5113980;28;20220;-62
2024/01/25 07:56:22;;;;;;;3.43;1.97;;;;;;;11.50;60.03;99765.41;5114481;28;20198;-63
2024/01/25 07:58:49;;;;;;;6.73;4.33;;;;;;;11.70;59.86;99771.69;5114634;28;20193;-62
2024/01/25 08:01:19;;;;;;;7.07;4.23;;;;;;;11.81;59.40;99768.50;5114279;28;20560;-63
2024/01/25 08:03:46;;;;;;;3.37;2.10;;;;;;;12.07;58.16;99765.94;5113500;28;20221;-63
2024/01/25 08:06:15;;;;;;;6.80;2.80;;;;;;;12.29;57.57;99756.78;5113101;28;20225;-63
2024/01/25 08:08:41;;;;;;;5.80;3.60;;;;;;;12.50;56.50;99761.97;5113106;28;20212;-63
2024/01/25 08:11:08;;;;;;;9.00;3.97;;;;;;;12.64;55.85;99765.47;5113922;28;20228;-63
2024/01/25 08:13:35;;;;;;;4.77;2.57;;;;;;;12.77;55.55;99765.50;5114168;28;20195;-64
2024/01/25 08:16:02;;;;;;;11.87;3.47;;;;;;;12.91;54.61;99762.63;5114922;27;20664;-63
2024/01/25 08:18:29;;;;;;;4.60;2.50;;;;;;;13.03;54.68;99762.91;5113711;28;20193;-61
2024/01/25 08:20:56;;;;;;;10.90;3.13;;;;;;;13.31;53.94;99763.50;5114172;28;20249;-63
2024/01/25 08:23:25;;;;;;;10.13;3.20;;;;;;;13.37;53.72;99747.50;5113992;27;20599;-62
2024/01/25 08:25:51;;;;;;;9.30;2.97;;;;;;;13.46;53.41;99756.09;5113834;28;20719;-64
2024/01/25 08:28:18;;;;;;;4.30;2.83;;;;;;;13.69;52.87;99749.25;5113874;28;20251;-62
2024/01/25 08:30:45;;;;;;;2.60;2.40;;;;;;;13.87;52.38;99752.09;5123802;27;20263;-63
2024/01/25 08:33:11;;;;;;;8.70;2.80;;;;;;;13.57;53.33;99756.28;5131226;27;20194;-61
2024/01/25 08:35:40;;;;;;;15.73;3.50;;;;;;;13.89;52.54;99749.22;5112004;27;20674;-61
2024/01/25 08:38:07;;;;;;;3.53;2.70;;;;;;;13.72;52.77;99743.50;5102292;28;20730;-61
2024/01/25 08:40:35;;;;;;;4.83;3.27;;;;;;;13.60;53.17;99749.72;5113397;28;20218;-62
2024/01/25 08:43:02;;;;;;;6.43;2.97;;;;;;;13.66;52.42;99746.19;5112189;28;20572;-62
2024/01/25 08:45:28;;;;;;;10.23;3.50;;;;;;;13.55;53.65;99738.81;5123077;27;20202;-62
2024/01/25 08:47:55;;;;;;;24.97;4.23;;;;;;;13.51;53.30;99738.41;5133874;27;20186;-62
2024/01/25 08:50:22;;;;;;;8.77;3.43;;;;;;;13.51;53.80;99741.09;5116450;27;20218;-62
2024/01/25 08:52:49;;;;;;;10.53;3.23;;;;;;;13.79;52.87;99738.13;5113616;28;20194;-62
2024/01/25 08:55:16;;;;;;;9.90;3.67;;;;;;;13.97;52.20;99743.63;5113282;27;20190;-62
2024/01/25 08:57:44;;;;;;;16.60;3.80;;;;;;;14.03;51.70;99732.91;5114535;27;20246;-62
2024/01/25 09:00:11;;;;;;;4.17;3.00;;;;;;;13.92;51.52;99741.59;5114556;27;20194;-64
2024/01/25 09:02:38;;;;;;;47.77;6.70;;;;;;;13.80;52.20;99734.47;5113438;28;20195;-62
2024/01/25 09:05:06;;;;;;;3.20;2.00;;;;;;;13.88;52.20;99735.03;5113297;28;20342;-62
2024/01/25 09:07:32;;;;;;;6.10;2.30;;;;;;;14.18;51.92;99740.66;5113253;28;20194;-63
2024/01/25 09:09:59;;;;;;;5.60;2.37;;;;;;;13.94;50.90;99747.56;5112748;28;20210;-62
2024/01/25 09:12:26;;;;;;;8.13;2.50;;;;;;;13.87;49.83;99732.56;5127851;27;20239;-61
2024/01/25 09:14:54;;;;;;;28.77;4.00;;;;;;;13.96;49.82;99726.78;5113334;28;20194;-62
2024/01/25 09:17:22;;;;;;;6.53;2.23;;;;;;;14.11;49.57;99724.66;5112874;28;20195;-62
2024/01/25 09:19:49;;;;;;;11.60;2.63;;;;;;;13.71;49.70;99749.88;5122682;27;20681;-62
2024/01/25 09:22:17;;;;;;;16.87;3.40;;;;;;;13.58;50.46;99749.91;5132396;27;20703;-62
2024/01/25 09:24:43;;;;;;;5.67;2.80;;;;;;;13.78;50.27;99745.34;5123463;27;20193;-62
2024/01/25 09:27:10;;;;;;;7.10;3.03;;;;;;;13.56;49.56;99757.28;5123098;27;20725;-63
2024/01/25 09:29:38;;;;;;;13.43;2.50;;;;;;;13.23;50.53;99753.84;5127486;27;20182;-64
2024/01/25 09:32:07;;;;;;;4.30;2.33;;;;;;;13.07;51.42;99753.47;5130883;27;20681;-61
2024/01/25 09:34:33;;;;;;;6.93;2.33;;;;;;;13.11;51.79;99742.16;5119157;27;20240;-62
2024/01/25 09:37:00;;;;;;;4.47;2.40;;;;;;;13.19;51.22;99755.28;5114293;27;20255;-62
2024/01/25 09:39:27;;;;;;;5.17;2.40;;;;;;;13.25;51.72;99753.66;5113340;27;20195;-62
2024/01/25 09:41:54;;;;;;;3.80;2.60;;;;;;;13.04;51.14;99752.03;5116884;27;20226;-62
2024/01/25 09:44:21;;;;;;;9.80;2.70;;;;;;;13.03;51.62;99750.38;5112663;28;20186;-62
2024/01/25 09:46:47;;;;;;;4.40;2.20;;;;;;;12.95;51.78;99739.88;5112078;27;20190;-63
2024/01/25 09:49:16;;;;;;;8.60;3.00;;;;;;;12.96;51.87;99741.53;5117207;27;20231;-69
2024/01/25 09:51:45;;;;;;;5.30;2.63;;;;;;;13.04;51.90;99741.38;5120443;27;20784;-62
2024/01/25 09:54:13;;;;;;;4.00;3.00;;;;;;;13.17;51.66;99754.69;5129135;27;20182;-63
2024/01/25 09:56:42;;;;;;;7.10;3.77;;;;;;;13.02;51.86;99743.41;5114546;27;20183;-61
2024/01/25 09:59:09;;;;;;;11.37;3.27;;;;;;;12.94;51.22;99734.78;5120137;27;20666;-62
2024/01/25 10:01:37;;;;;;;8.53;3.57;;;;;;;12.85;51.65;99744.81;5122135;27;20193;-62
2024/01/25 10:04:07;;;;;;;4.47;2.70;;;;;;;12.83;52.22;99741.50;5114187;27;20186;-63
2024/01/25 10:06:35;;;;;;;5.63;2.97;;;;;;;12.62;52.63;99728.38;5110415;28;20263;-62
2024/01/25 10:09:03;;;;;;;13.50;3.47;;;;;;;12.77;52.49;99731.69;5109522;28;20730;-63
2024/01/25 10:11:35;;;;;;;7.87;3.57;;;;;;;12.76;52.12;99732.72;5110987;28;20305;-65
2024/01/25 10:14:03;;;;;;;14.63;3.00;;;;;;;12.67;52.17;99722.44;5111472;28;20189;-65
2024/01/25 10:16:30;;;;;;;13.37;3.93;;;;;;;12.71;51.81;99719.19;5108976;28;20209;-66
2024/01/25 10:18:57;;;;;;;15.27;3.27;;;;;;;12.69;51.53;99731.03;5111264;28;20242;-65
2024/01/25 10:21:24;;;;;;;5.33;2.60;;;;;;;12.91;51.68;99741.31;5111313;28;20677;-64
2024/01/25 10:23:54;;;;;;;26.13;4.33;;;;;;;13.01;51.89;99739.09;5111374;28;20727;-65
2024/01/25 10:26:21;;;;;;;7.53;2.70;;;;;;;12.88;52.39;99746.25;5111233;28;20219;-65
2024/01/25 10:28:57;;;;;;;4.20;2.60;;;;;;;12.85;52.27;99742.13;5111501;28;20202;-65
2024/01/25 10:31:25;;;;;;;2.60;2.40;;;;;;;12.97;52.37;99737.00;5111165;28;20202;-64
2024/01/25 10:33:53;;;;;;;6.90;3.30;;;;;;;13.00;52.26;99725.97;5108983;28;20198;-65
2024/01/25 10:36:21;;;;;;;3.23;2.40;;;;;;;13.04;51.66;99725.38;5110369;28;20729;-65
2024/01/25 10:38:50;;;;;;;6.20;2.90;;;;;;;13.05;51.09;99732.34;5110414;28;20195;-65
2024/01/25 10:41:20;;;;;;;8.07;3.00;;;;;;;13.05;51.65;99721.66;5110808;28;20250;-66
2024/01/25 10:43:47;;;;;;;7.50;3.30;;;;;;;13.15;51.31;99706.06;5107632;28;20254;-65
2024/01/25 10:46:14;;;;;;;10.90;4.13;;;;;;;13.33;50.80;99708.09;5108061;28;20255;-65
2024/01/25 10:48:42;;;;;;;9.37;2.93;;;;;;;13.35;50.02;99717.50;5109787;28;20195;-65
2024/01/25 10:51:10;;;;;;;8.20;3.27;;;;;;;13.27;50.67;99715.06;5111161;28;20222;-64
2024/01/25 10:53:38;;;;;;;4.67;3.17;;;;;;;13.21;51.19;99705.25;5110431;28;20198;-65
2024/01/25 10:56:06;;;;;;;10.10;3.47;;;;;;;13.21;50.65;99705.25;5111074;28;20256;-66
2024/01/25 10:58:35;;;;;;;9.97;3.27;;;;;;;13.10;50.72;99708.53;5110789;28;20222;-64
2024/01/25 11:01:03;;;;;;;12.60;3.70;;;;;;;12.90;51.51;99705.00;5109999;28;20195;-64
2024/01/25 11:03:31;;;;;;;4.80;2.60;;;;;;;12.85;51.34;99699.50;5110748;28;20277;-63
2024/01/25 11:06:07;;;;;;;5.20;3.03;;;;;;;12.63;51.26;99695.41;5112030;28;20758;-64
2024/01/25 11:08:34;;;;;;;5.20;2.90;;;;;;;12.69;51.35;99689.22;5114158;28;20563;-63
2024/01/25 11:11:01;;;;;;;16.27;5.57;;;;;;;12.58;51.79;99697.03;5114511;28;20219;-64
2024/01/25 11:13:29;;;;;;;4.23;3.80;;;;;;;12.56;51.54;99689.22;5114237;28;20620;-63
2024/01/25 11:15:57;;;;;;;5.60;3.23;;;;;;;12.45;51.65;99687.16;5114781;28;20195;-64
2024/01/25 11:18:26;;;;;;;8.23;3.47;;;;;;;12.39;52.28;99689.81;5114416;28;20247;-63
2024/01/25 11:20:53;;;;;;;8.87;3.33;;;;;;;12.36;52.59;99682.22;5118886;27;20683;-63
2024/01/25 11:23:20;;;;;;;10.07;5.80;;;;;;;12.44;52.90;99680.19;5117355;27;20189;-63
2024/01/25 11:25:48;;;;;;;16.27;5.77;;;;;;;12.61;52.09;99680.59;5116024;27;20198;-64
2024/01/25 11:28:16;;;;;;;7.83;3.63;;;;;;;12.61;51.85;99678.78;5112712;28;20194;-65
2024/01/25 11:30:44;;;;;;;5.17;3.60;;;;;;;12.63;51.45;99678.56;5111341;28;20764;-65
2024/01/25 11:33:13;;;;;;;10.77;3.47;;;;;;;12.71;50.70;99681.88;5112360;28;20207;-65